Time;durP1;ratioP1;P1;durP2;ratioP2;P2;SDS_P1;SDS_P2;PMS_P1;PMS_P2;Temp;Humidity;BMP_temperature;BMP_pressure;BME280_temperature;BME280_humidity;BME280_pressure;Samples;Min_cycle;Max_cycle;Signal;HPM_P1;HPM_P2
2023/03/13 00:01:22;;;;;;;0.00;0.00;;;8.80;99.90;;;;;;5020154;28;20076;-62
2023/03/13 00:03:48;;;;;;;9.65;1.05;;;8.80;99.90;;;;;;5026660;28;20144;-62
2023/03/13 00:06:14;;;;;;;0.75;0.75;;;8.80;99.90;;;;;;5028213;28;20467;-62
2023/03/13 00:08:40;;;;;;;0.30;0.30;;;8.90;99.90;;;;;;5028399;28;20041;-62
2023/03/13 00:11:09;;;;;;;0.28;0.28;;;8.90;99.90;;;;;;5028611;28;20531;-62
2023/03/13 00:13:35;;;;;;;1.20;1.15;;;8.90;99.90;;;;;;5028017;28;20045;-62
2023/03/13 00:16:03;;;;;;;0.10;0.10;;;8.90;99.90;;;;;;5027406;28;20535;-62
2023/03/13 00:40:27;;;;;;;0.43;0.43;;;8.80;99.90;;;;;;5020749;28;20126;-62
2023/03/13 00:42:52;;;;;;;0.30;0.30;;;8.80;99.90;;;;;;5015945;28;20497;-62
2023/03/13 00:45:18;;;;;;;0.10;0.10;;;8.80;99.90;;;;;;5027832;28;20501;-62
2023/03/13 00:47:44;;;;;;;0.10;0.10;;;8.70;99.90;;;;;;5027024;28;20041;-62
2023/03/13 00:50:10;;;;;;;0.32;0.32;;;8.70;99.90;;;;;;5027951;28;20053;-63
2023/03/13 00:52:35;;;;;;;0.10;0.10;;;8.80;99.90;;;;;;5025881;28;20597;-62
2023/03/13 00:55:03;;;;;;;0.30;0.30;;;8.80;99.90;;;;;;5026367;28;20069;-62
2023/03/13 00:57:28;;;;;;;0.15;0.15;;;8.80;99.90;;;;;;5016709;28;20573;-62
2023/03/13 00:59:54;;;;;;;0.25;0.25;;;8.70;99.90;;;;;;5027582;28;20042;-62
2023/03/13 01:02:19;;;;;;;0.10;0.10;;;8.70;99.90;;;;;;5025148;28;20052;-62
2023/03/13 01:04:45;;;;;;;12.52;1.95;;;8.80;99.90;;;;;;5023900;28;20034;-62
2023/03/13 01:07:10;;;;;;;0.15;0.15;;;8.80;99.90;;;;;;5027337;28;20048;-62
2023/03/13 01:09:36;;;;;;;0.10;0.10;;;8.70;99.90;;;;;;5026992;28;20078;-62
2023/03/13 01:12:02;;;;;;;2.17;1.40;;;8.70;99.90;;;;;;5027715;28;20129;-62
2023/03/13 01:14:27;;;;;;;0.05;0.05;;;8.80;99.90;;;;;;5014265;28;20041;-62
2023/03/13 01:16:53;;;;;;;0.10;0.10;;;8.80;99.90;;;;;;5022229;28;20057;-62
2023/03/13 01:19:18;;;;;;;0.38;0.38;;;8.80;99.90;;;;;;5023924;28;20141;-62
2023/03/13 01:21:45;;;;;;;1.20;1.10;;;8.80;99.90;;;;;;5026639;28;20052;-62
2023/03/13 01:24:10;;;;;;;0.25;0.25;;;8.80;99.90;;;;;;5027799;28;20049;-62
2023/03/13 01:26:36;;;;;;;0.05;0.05;;;8.80;99.90;;;;;;5027139;28;20049;-62
2023/03/13 01:29:02;;;;;;;0.10;0.10;;;8.80;99.90;;;;;;5026397;28;20069;-62
2023/03/13 01:31:33;;;;;;;0.30;0.30;;;8.80;99.90;;;;;;5027317;28;20136;-62
2023/03/13 01:34:01;;;;;;;0.10;0.10;;;8.80;99.90;;;;;;5014744;28;20060;-62
2023/03/13 01:36:28;;;;;;;0.22;0.22;;;8.90;99.90;;;;;;5026470;28;20037;-63
2023/03/13 01:38:56;;;;;;;1.98;0.68;;;8.80;99.90;;;;;;5025442;28;20079;-63
2023/03/13 01:41:23;;;;;;;0.40;0.40;;;8.90;99.90;;;;;;5026412;28;20038;-63
2023/03/13 01:43:49;;;;;;;0.95;0.85;;;8.90;99.90;;;;;;5026296;28;20111;-63
2023/03/13 01:46:20;;;;;;;0.10;0.10;;;8.90;99.90;;;;;;5031052;28;20037;-63
2023/03/13 01:48:56;;;;;;;0.10;0.10;;;8.90;99.90;;;;;;5030317;28;20092;-63
2023/03/13 01:51:33;;;;;;;2.45;2.35;;;8.90;99.90;;;;;;5026886;28;20493;-63
2023/03/13 01:54:07;;;;;;;3.30;0.63;;;8.90;99.90;;;;;;5028174;28;20049;-63
2023/03/13 01:56:56;;;;;;;0.03;0.03;;;9.00;99.90;;;;;;5028674;28;20049;-63
2023/03/13 01:59:29;;;;;;;0.30;0.30;;;9.00;99.90;;;;;;5028380;28;20041;-63
2023/03/13 02:01:58;;;;;;;0.17;0.17;;;9.00;99.90;;;;;;5030664;28;20571;-63
2023/03/13 02:04:29;;;;;;;0.90;0.90;;;9.00;99.90;;;;;;5028574;28;20052;-63
2023/03/13 02:07:00;;;;;;;0.10;0.10;;;9.00;99.90;;;;;;5029849;28;20034;-63
2023/03/13 02:09:30;;;;;;;0.10;0.10;;;9.10;99.90;;;;;;5026957;28;20115;-63
2023/03/13 02:12:28;;;;;;;0.10;0.10;;;9.10;99.90;;;;;;5030505;28;20049;-63
2023/03/13 02:14:55;;;;;;;0.10;0.10;;;9.10;99.90;;;;;;5028925;28;20111;-62
2023/03/13 02:17:21;;;;;;;0.28;0.28;;;9.10;99.90;;;;;;5031303;28;20044;-63
2023/03/13 02:19:50;;;;;;;0.15;0.15;;;9.10;99.90;;;;;;5022811;28;20053;-63
2023/03/13 02:22:42;;;;;;;0.25;0.25;;;9.10;99.90;;;;;;5025449;28;20103;-63
2023/03/13 02:25:23;;;;;;;0.10;0.10;;;9.10;99.90;;;;;;5029534;28;20045;-63
2023/03/13 02:28:03;;;;;;;1.65;1.55;;;9.10;99.90;;;;;;5026264;28;20072;-63
2023/03/13 02:30:29;;;;;;;1.30;1.20;;;9.10;99.90;;;;;;5029584;28;20052;-63
2023/03/13 02:32:55;;;;;;;0.10;0.10;;;9.10;99.90;;;;;;5029537;28;20184;-63
2023/03/13 02:35:22;;;;;;;0.40;0.40;;;9.10;99.90;;;;;;5030111;28;20116;-63
2023/03/13 02:37:51;;;;;;;0.10;0.10;;;9.10;99.90;;;;;;5029560;28;20045;-63
2023/03/13 02:40:23;;;;;;;4.85;0.90;;;9.10;99.90;;;;;;5027011;28;20046;-64
2023/03/13 02:42:50;;;;;;;0.20;0.20;;;9.10;99.90;;;;;;5030494;28;20041;-63
2023/03/13 02:45:17;;;;;;;1.15;1.13;;;9.10;99.90;;;;;;5029878;28;20037;-63
2023/03/13 02:47:43;;;;;;;0.10;0.10;;;9.20;99.90;;;;;;5029962;28;20042;-63
2023/03/13 02:50:10;;;;;;;0.10;0.10;;;9.20;99.90;;;;;;5025044;28;20049;-63
2023/03/13 02:52:54;;;;;;;0.10;0.10;;;9.30;99.90;;;;;;5011287;28;20050;-63
2023/03/13 02:55:33;;;;;;;0.00;0.00;;;9.40;99.90;;;;;;5030448;28;20041;-63
2023/03/13 02:57:59;;;;;;;0.90;0.90;;;9.30;99.90;;;;;;5017104;28;20045;-64
2023/03/13 03:00:25;;;;;;;0.00;0.00;;;9.40;99.90;;;;;;5019883;28;20046;-64
2023/03/13 03:02:53;;;;;;;1.42;1.35;;;9.40;99.90;;;;;;5013210;28;20049;-64
2023/03/13 03:05:19;;;;;;;0.10;0.10;;;9.40;99.90;;;;;;5030595;28;20378;-64
2023/03/13 03:07:44;;;;;;;0.10;0.10;;;9.50;99.90;;;;;;5028449;28;20026;-64
2023/03/13 03:10:10;;;;;;;0.10;0.10;;;9.40;99.90;;;;;;5029027;28;20183;-64
2023/03/13 03:12:36;;;;;;;0.55;0.55;;;9.40;99.90;;;;;;5029043;28;20087;-64
2023/03/13 03:15:03;;;;;;;0.50;0.50;;;9.40;99.90;;;;;;5030258;28;20041;-64
2023/03/13 03:17:29;;;;;;;0.10;0.10;;;9.40;99.90;;;;;;5029226;28;20513;-64
2023/03/13 03:19:55;;;;;;;0.03;0.03;;;9.40;99.90;;;;;;5025073;28;20029;-63
2023/03/13 03:22:21;;;;;;;0.10;0.10;;;9.40;99.90;;;;;;5028571;28;20556;-64
2023/03/13 03:24:46;;;;;;;0.28;0.28;;;9.40;99.90;;;;;;5029412;28;20136;-64
2023/03/13 03:27:12;;;;;;;0.08;0.08;;;9.40;99.90;;;;;;5025229;28;20041;-64
2023/03/13 03:29:37;;;;;;;0.10;0.10;;;9.40;99.90;;;;;;5018941;28;20056;-63
2023/03/13 03:32:03;;;;;;;0.30;0.30;;;9.40;99.90;;;;;;5029226;28;20033;-64
2023/03/13 03:34:29;;;;;;;0.35;0.35;;;9.40;99.90;;;;;;5029223;28;20098;-64
2023/03/13 03:36:54;;;;;;;0.40;0.40;;;9.40;99.90;;;;;;5028309;28;20529;-64
2023/03/13 03:39:20;;;;;;;0.10;0.10;;;9.50;99.90;;;;;;5023044;28;20043;-64
2023/03/13 03:41:45;;;;;;;0.10;0.10;;;9.50;99.90;;;;;;5029144;28;20049;-64
2023/03/13 03:44:11;;;;;;;0.10;0.10;;;9.60;99.90;;;;;;5028131;28;20124;-64
2023/03/13 03:46:37;;;;;;;0.17;0.17;;;9.70;99.90;;;;;;5027679;28;20057;-64
2023/03/13 03:49:02;;;;;;;0.40;0.40;;;9.80;99.90;;;;;;5028795;28;20464;-64
2023/03/13 03:51:28;;;;;;;0.10;0.10;;;9.80;99.90;;;;;;5025671;28;20057;-64
2023/03/13 03:53:53;;;;;;;0.20;0.20;;;9.90;99.90;;;;;;5029222;28;20095;-64
2023/03/13 03:56:19;;;;;;;0.00;0.00;;;9.90;99.90;;;;;;5027891;28;20397;-64
2023/03/13 03:58:45;;;;;;;0.40;0.35;;;9.90;99.90;;;;;;5028165;28;20489;-64
2023/03/13 04:01:11;;;;;;;0.15;0.15;;;9.90;99.90;;;;;;5028521;28;20052;-64
2023/03/13 04:03:37;;;;;;;0.22;0.22;;;10.00;99.90;;;;;;5028611;28;20563;-64
2023/03/13 04:06:02;;;;;;;0.50;0.50;;;9.90;99.90;;;;;;5021991;28;20136;-64
2023/03/13 04:08:28;;;;;;;0.10;0.10;;;10.00;99.90;;;;;;5027756;28;20492;-64
2023/03/13 04:10:53;;;;;;;0.45;0.45;;;10.00;99.90;;;;;;5027645;28;20075;-64
2023/03/13 04:13:19;;;;;;;0.10;0.10;;;10.00;99.90;;;;;;5028949;28;20123;-64
2023/03/13 04:15:45;;;;;;;2.22;2.05;;;10.10;99.90;;;;;;5028102;28;20056;-64
2023/03/13 04:18:10;;;;;;;0.43;0.43;;;10.10;99.90;;;;;;5026036;28;20100;-64
2023/03/13 04:20:36;;;;;;;0.10;0.10;;;10.10;99.90;;;;;;5027517;28;20095;-64
2023/03/13 04:23:02;;;;;;;1.90;0.95;;;10.20;99.90;;;;;;5028440;28;20488;-64
2023/03/13 04:25:28;;;;;;;0.20;0.20;;;10.40;99.90;;;;;;5027366;28;20038;-64
2023/03/13 04:27:53;;;;;;;0.45;0.45;;;10.50;99.90;;;;;;5019090;28;20406;-64
2023/03/13 04:30:19;;;;;;;0.10;0.10;;;10.50;99.90;;;;;;5023798;28;20048;-64
2023/03/13 04:32:44;;;;;;;0.00;0.00;;;10.60;99.90;;;;;;5027949;28;20095;-64
2023/03/13 04:35:10;;;;;;;0.10;0.10;;;10.60;99.90;;;;;;5027549;28;20080;-64
2023/03/13 04:37:36;;;;;;;0.65;0.65;;;10.60;99.90;;;;;;5027250;28;20068;-64
2023/03/13 04:40:01;;;;;;;2.40;2.20;;;10.70;99.90;;;;;;5014582;28;20038;-64
2023/03/13 04:42:27;;;;;;;0.10;0.10;;;10.70;99.90;;;;;;5027335;28;20128;-64
2023/03/13 04:44:53;;;;;;;0.00;0.00;;;10.60;99.90;;;;;;5028038;28;20048;-64
2023/03/13 04:47:18;;;;;;;1.60;1.35;;;10.70;99.90;;;;;;5022797;28;20053;-64
2023/03/13 04:49:44;;;;;;;0.10;0.10;;;10.70;99.90;;;;;;5027304;28;20053;-64
2023/03/13 04:52:09;;;;;;;2.33;1.55;;;10.80;99.90;;;;;;5027284;28;20695;-64
2023/03/13 04:54:35;;;;;;;0.20;0.20;;;10.80;99.90;;;;;;5027912;28;20037;-64
2023/03/13 04:57:01;;;;;;;0.10;0.10;;;10.80;99.90;;;;;;5026563;28;20176;-64
2023/03/13 04:59:27;;;;;;;1.73;1.00;;;10.90;99.90;;;;;;5025965;28;20112;-64
2023/03/13 05:01:52;;;;;;;2.28;1.65;;;10.90;99.90;;;;;;5027633;28;20042;-64
2023/03/13 05:04:18;;;;;;;0.43;0.43;;;10.90;99.90;;;;;;5024861;28;20040;-64
2023/03/13 05:06:43;;;;;;;0.10;0.10;;;10.90;99.90;;;;;;5026900;28;20583;-64
2023/03/13 05:09:09;;;;;;;0.20;0.20;;;10.90;99.90;;;;;;5010884;28;20037;-64
2023/03/13 05:11:35;;;;;;;0.40;0.40;;;10.90;99.90;;;;;;5023609;28;20095;-64
2023/03/13 05:14:00;;;;;;;2.95;1.75;;;10.90;99.90;;;;;;5026535;28;20045;-64
2023/03/13 05:16:26;;;;;;;0.43;0.43;;;10.90;99.90;;;;;;5026035;28;20117;-64
2023/03/13 05:18:52;;;;;;;0.08;0.08;;;10.90;99.90;;;;;;5024407;28;20052;-64
2023/03/13 05:21:17;;;;;;;2.65;1.70;;;10.90;99.90;;;;;;5028398;28;20040;-63
2023/03/13 05:23:43;;;;;;;0.10;0.10;;;10.90;99.90;;;;;;5032017;28;20049;-64
2023/03/13 05:26:08;;;;;;;0.10;0.10;;;10.90;99.90;;;;;;5026953;28;20462;-63
2023/03/13 05:28:34;;;;;;;0.10;0.10;;;11.00;99.90;;;;;;5029990;28;20040;-64
2023/03/13 05:31:00;;;;;;;0.75;0.75;;;11.00;99.90;;;;;;5023371;28;20050;-64
2023/03/13 05:33:25;;;;;;;0.15;0.15;;;11.00;99.90;;;;;;5025741;28;20081;-64
2023/03/13 05:35:51;;;;;;;0.95;0.95;;;11.00;99.90;;;;;;5029700;28;20081;-64
2023/03/13 05:38:17;;;;;;;0.60;0.60;;;11.00;99.90;;;;;;5032000;28;20034;-64
2023/03/13 05:40:42;;;;;;;6.60;2.35;;;11.00;99.90;;;;;;5030912;28;20100;-63
2023/03/13 05:43:08;;;;;;;0.57;0.57;;;11.00;99.90;;;;;;5029701;28;20584;-64
2023/03/13 05:45:34;;;;;;;0.10;0.10;;;11.00;99.90;;;;;;5030338;28;20556;-63
2023/03/13 05:47:59;;;;;;;0.38;0.30;;;11.00;99.90;;;;;;5029009;28;20049;-64
2023/03/13 05:50:25;;;;;;;2.58;2.17;;;11.00;99.90;;;;;;5011283;28;20490;-63
2023/03/13 05:52:51;;;;;;;1.15;1.05;;;11.10;99.90;;;;;;5024389;28;20473;-64
2023/03/13 05:55:17;;;;;;;0.10;0.10;;;11.00;99.90;;;;;;5030817;28;20046;-63
2023/03/13 05:57:47;;;;;;;0.45;0.45;;;11.00;99.90;;;;;;5017099;28;20050;-64
2023/03/13 06:00:14;;;;;;;7.47;2.65;;;11.00;99.90;;;;;;5031154;28;20516;-63
2023/03/13 06:02:40;;;;;;;0.20;0.20;;;11.00;99.90;;;;;;5028889;28;20052;-63
2023/03/13 06:05:06;;;;;;;0.22;0.22;;;11.00;99.90;;;;;;5031279;28;20050;-63
2023/03/13 06:07:32;;;;;;;0.80;0.55;;;11.10;99.90;;;;;;5027284;28;20045;-63
2023/03/13 06:09:57;;;;;;;0.00;0.00;;;11.10;99.90;;;;;;5029963;28;20071;-63
2023/03/13 06:12:23;;;;;;;0.52;0.52;;;11.10;99.90;;;;;;5028866;28;20663;-63
2023/03/13 06:14:48;;;;;;;6.63;2.35;;;11.10;99.90;;;;;;5030998;28;20261;-64
2023/03/13 06:17:14;;;;;;;0.10;0.10;;;11.10;99.90;;;;;;5028316;28;20057;-64
2023/03/13 06:19:40;;;;;;;0.57;0.40;;;11.20;99.90;;;;;;5023706;28;20620;-64
2023/03/13 06:22:05;;;;;;;0.35;0.35;;;11.20;99.90;;;;;;5030277;28;20050;-64
2023/03/13 06:24:31;;;;;;;1.05;1.05;;;11.20;99.90;;;;;;5030311;28;20488;-63
2023/03/13 06:26:56;;;;;;;0.40;0.40;;;11.30;99.90;;;;;;5029266;28;20057;-64
2023/03/13 06:29:23;;;;;;;0.10;0.10;;;11.30;99.90;;;;;;5030779;28;20041;-64
2023/03/13 06:31:49;;;;;;;0.30;0.30;;;11.30;99.90;;;;;;5028024;28;20081;-63
2023/03/13 06:34:16;;;;;;;9.15;0.88;;;11.40;99.90;;;;;;5031280;28;20054;-63
2023/03/13 06:36:41;;;;;;;3.75;2.38;;;11.40;99.90;;;;;;5028349;28;20047;-63
2023/03/13 06:39:08;;;;;;;0.10;0.10;;;11.40;99.90;;;;;;5029484;28;20120;-63
2023/03/13 06:41:34;;;;;;;1.98;0.43;;;11.50;99.90;;;;;;5030767;28;20099;-63
2023/03/13 06:44:00;;;;;;;0.28;0.28;;;11.40;99.90;;;;;;5029612;28;20096;-63
2023/03/13 06:46:26;;;;;;;2.20;1.85;;;11.40;99.90;;;;;;5027830;28;20476;-63
2023/03/13 06:48:52;;;;;;;0.45;0.45;;;11.40;99.90;;;;;;5028956;28;20041;-63
2023/03/13 06:51:20;;;;;;;0.30;0.30;;;11.40;99.90;;;;;;5029055;28;20050;-63
2023/03/13 06:53:46;;;;;;;0.10;0.10;;;11.40;99.90;;;;;;5030216;28;20495;-63
2023/03/13 06:56:11;;;;;;;8.57;2.17;;;11.40;99.90;;;;;;5027459;28;20128;-63
2023/03/13 06:58:37;;;;;;;0.10;0.10;;;11.40;99.90;;;;;;5023035;28;20125;-63
2023/03/13 07:01:06;;;;;;;15.45;1.40;;;11.40;99.90;;;;;;5028466;28;20091;-63
2023/03/13 07:03:32;;;;;;;1.15;1.05;;;11.50;99.90;;;;;;5030716;28;20064;-63
2023/03/13 07:05:58;;;;;;;3.28;1.80;;;11.60;99.90;;;;;;5027207;28;20485;-63
2023/03/13 07:08:24;;;;;;;0.68;0.68;;;11.70;99.90;;;;;;5027980;28;20451;-63
2023/03/13 07:10:51;;;;;;;0.10;0.10;;;11.60;99.90;;;;;;5028485;28;20041;-62
2023/03/13 07:13:18;;;;;;;0.63;0.63;;;11.50;99.90;;;;;;5029615;28;20042;-63
2023/03/13 07:15:44;;;;;;;0.17;0.17;;;11.40;99.90;;;;;;5021788;28;20100;-63
2023/03/13 07:18:10;;;;;;;0.40;0.40;;;11.50;99.90;;;;;;5026393;28;20397;-64
2023/03/13 07:20:35;;;;;;;0.10;0.10;;;11.50;99.90;;;;;;5013636;28;20049;-63
2023/03/13 07:23:01;;;;;;;6.82;3.10;;;11.50;99.90;;;;;;5030020;28;20056;-63
2023/03/13 07:25:27;;;;;;;0.22;0.22;;;11.50;99.90;;;;;;5028676;28;20029;-64
2023/03/13 07:27:52;;;;;;;0.08;0.08;;;11.50;99.90;;;;;;5028497;28;20049;-64
2023/03/13 07:30:18;;;;;;;0.30;0.30;;;11.50;99.90;;;;;;5026902;28;20077;-63
2023/03/13 07:32:44;;;;;;;0.30;0.30;;;11.40;99.90;;;;;;5027061;28;20651;-64
2023/03/13 07:35:10;;;;;;;0.10;0.10;;;11.40;99.90;;;;;;5025991;28;20120;-63
2023/03/13 07:37:35;;;;;;;2.42;1.65;;;11.40;99.90;;;;;;5026771;28;20520;-63
2023/03/13 07:40:01;;;;;;;1.45;0.73;;;11.40;99.90;;;;;;5025525;28;20448;-63
2023/03/13 07:42:26;;;;;;;0.10;0.10;;;11.40;99.90;;;;;;5028273;28;20041;-64
2023/03/13 07:44:52;;;;;;;0.90;0.90;;;11.40;99.90;;;;;;5029197;28;20045;-63
2023/03/13 07:47:18;;;;;;;0.10;0.10;;;11.50;99.90;;;;;;5025339;28;20048;-63
2023/03/13 07:49:45;;;;;;;0.20;0.20;;;11.50;99.90;;;;;;5022093;28;20054;-63
2023/03/13 07:52:11;;;;;;;0.10;0.10;;;11.60;99.90;;;;;;5028117;28;20566;-63
2023/03/13 07:54:36;;;;;;;0.10;0.10;;;11.60;99.90;;;;;;5028809;28;20049;-63
2023/03/13 07:57:02;;;;;;;0.40;0.40;;;11.50;99.90;;;;;;5025907;28;20037;-63
2023/03/13 07:59:28;;;;;;;0.50;0.50;;;11.60;99.90;;;;;;5028266;28;20048;-63
2023/03/13 08:01:54;;;;;;;1.40;1.30;;;11.60;99.90;;;;;;5027615;28;20049;-62
2023/03/13 08:04:19;;;;;;;0.20;0.20;;;11.70;99.90;;;;;;5013831;28;20053;-63
2023/03/13 08:06:45;;;;;;;0.55;0.55;;;11.70;99.90;;;;;;5028366;28;20079;-63
2023/03/13 08:09:11;;;;;;;0.98;0.98;;;11.70;99.90;;;;;;5023091;28;20048;-63
2023/03/13 08:11:40;;;;;;;0.10;0.10;;;12.00;99.90;;;;;;5028890;28;20041;-63
2023/03/13 08:14:06;;;;;;;0.38;0.38;;;12.10;99.90;;;;;;5031918;28;20072;-63
2023/03/13 08:16:33;;;;;;;0.10;0.10;;;11.90;99.90;;;;;;5030355;28;20076;-63
2023/03/13 08:19:00;;;;;;;0.90;0.43;;;11.90;99.90;;;;;;5029569;28;20509;-63
2023/03/13 08:21:28;;;;;;;0.52;0.52;;;12.10;99.90;;;;;;5028207;28;20041;-62
2023/03/13 08:23:56;;;;;;;4.18;2.53;;;12.30;99.90;;;;;;5021160;28;20156;-63
2023/03/13 08:26:24;;;;;;;0.10;0.10;;;12.40;99.90;;;;;;5024881;28;20045;-63
2023/03/13 08:28:54;;;;;;;0.10;0.10;;;12.80;99.90;;;;;;5025514;28;20393;-63
2023/03/13 08:31:23;;;;;;;0.10;0.10;;;13.10;99.90;;;;;;5022213;28;20049;-62
2023/03/13 08:33:49;;;;;;;0.10;0.10;;;13.50;99.90;;;;;;5025170;28;21039;-63
2023/03/13 08:36:17;;;;;;;1.00;1.00;;;13.60;99.90;;;;;;5025604;28;20048;-63
2023/03/13 08:38:44;;;;;;;0.13;0.13;;;13.70;99.90;;;;;;5018023;28;20076;-63
2023/03/13 08:41:11;;;;;;;0.00;0.00;;;13.90;99.90;;;;;;5027276;28;20053;-63
2023/03/13 08:43:37;;;;;;;0.93;0.73;;;13.80;99.90;;;;;;5027953;28;20053;-63
2023/03/13 08:46:03;;;;;;;11.02;1.40;;;13.60;99.90;;;;;;5017964;28;21005;-63
2023/03/13 08:48:28;;;;;;;0.15;0.15;;;13.50;99.90;;;;;;5021274;28;20068;-63
2023/03/13 08:51:01;;;;;;;3.40;1.17;;;13.30;99.90;;;;;;5027947;28;20103;-62
2023/03/13 08:53:27;;;;;;;3.78;1.08;;;13.30;99.90;;;;;;5025410;28;20144;-63
2023/03/13 08:55:53;;;;;;;3.33;3.03;;;13.20;99.90;;;;;;5025440;28;20112;-62
2023/03/13 08:58:19;;;;;;;0.00;0.00;;;13.20;99.90;;;;;;5028286;28;20045;-62
2023/03/13 09:00:44;;;;;;;0.28;0.28;;;13.00;99.90;;;;;;5028081;28;20033;-63
2023/03/13 09:03:10;;;;;;;0.22;0.22;;;12.80;99.90;;;;;;5026171;28;20041;-62
2023/03/13 09:05:38;;;;;;;0.13;0.13;;;12.70;99.90;;;;;;5025880;28;20037;-62
2023/03/13 09:08:04;;;;;;;0.10;0.10;;;12.50;99.90;;;;;;5027125;28;20037;-62
2023/03/13 09:10:32;;;;;;;1.35;0.65;;;12.50;99.90;;;;;;5019434;28;20040;-61
2023/03/13 09:12:58;;;;;;;0.20;0.20;;;12.40;99.90;;;;;;5026892;28;20041;-61
2023/03/13 09:15:23;;;;;;;0.52;0.52;;;12.30;99.90;;;;;;5018700;28;20099;-62
2023/03/13 09:17:49;;;;;;;31.58;1.75;;;12.30;99.90;;;;;;5027824;28;20083;-62
2023/03/13 09:20:14;;;;;;;0.10;0.10;;;12.20;99.90;;;;;;5013816;28;20452;-61
2023/03/13 09:22:40;;;;;;;0.52;0.52;;;12.20;99.90;;;;;;5026766;28;20042;-61
2023/03/13 09:25:06;;;;;;;9.13;2.95;;;12.20;99.90;;;;;;5026092;28;20045;-62
2023/03/13 09:27:31;;;;;;;0.85;0.80;;;12.30;99.90;;;;;;5026728;28;20044;-62
2023/03/13 09:29:57;;;;;;;0.10;0.10;;;12.30;99.90;;;;;;5027820;28;20123;-62
2023/03/13 09:32:23;;;;;;;7.72;1.25;;;12.30;99.90;;;;;;5026112;28;20520;-62
2023/03/13 09:34:49;;;;;;;0.10;0.10;;;12.30;99.90;;;;;;5026720;28;20030;-62
2023/03/13 09:37:15;;;;;;;0.10;0.10;;;12.50;99.90;;;;;;5020115;28;20085;-61
2023/03/13 09:39:40;;;;;;;0.80;0.70;;;12.60;99.90;;;;;;5027275;28;20045;-61
2023/03/13 09:42:16;;;;;;;1.48;1.38;;;13.00;99.90;;;;;;5024774;28;20049;-62
2023/03/13 09:44:50;;;;;;;0.10;0.10;;;13.70;99.90;;;;;;5022469;28;20041;-63
2023/03/13 09:47:37;;;;;;;0.68;0.47;;;14.10;99.90;;;;;;5024336;28;20056;-62
2023/03/13 09:50:22;;;;;;;0.30;0.30;;;14.30;99.90;;;;;;5013226;28;20253;-62
2023/03/13 09:52:50;;;;;;;1.65;1.45;;;14.70;99.90;;;;;;5027639;28;20145;-62
2023/03/13 09:55:36;;;;;;;0.10;0.10;;;15.00;99.90;;;;;;5023060;28;20452;-61
2023/03/13 09:58:27;;;;;;;29.60;1.23;;;15.20;99.90;;;;;;5012498;28;20042;-62
2023/03/13 10:00:55;;;;;;;3.92;0.95;;;15.50;99.90;;;;;;5021038;28;20053;-62
2023/03/13 10:03:33;;;;;;;1.58;1.48;;;15.30;99.90;;;;;;5026023;28;20046;-62
2023/03/13 10:06:04;;;;;;;0.32;0.32;;;15.30;99.90;;;;;;5016891;28;20049;-62
2023/03/13 10:08:35;;;;;;;0.10;0.10;;;14.60;99.90;;;;;;5021896;28;20037;-62
2023/03/13 10:11:11;;;;;;;0.00;0.00;;;14.30;99.90;;;;;;5026133;28;20492;-62
2023/03/13 10:13:40;;;;;;;0.20;0.20;;;14.00;99.90;;;;;;5023429;28;20087;-62
2023/03/13 10:16:15;;;;;;;31.80;1.17;;;13.80;99.90;;;;;;5019887;28;20400;-62
2023/03/13 10:18:46;;;;;;;23.75;4.93;;;13.80;99.90;;;;;;5018839;28;20084;-62
2023/03/13 10:21:25;;;;;;;0.55;0.55;;;14.10;99.90;;;;;;5020524;28;20038;-62
2023/03/13 10:24:01;;;;;;;0.00;0.00;;;14.30;99.90;;;;;;5026221;28;20050;-62
2023/03/13 10:26:30;;;;;;;0.10;0.10;;;14.50;99.90;;;;;;5031105;28;20049;-62
2023/03/13 10:28:59;;;;;;;2.67;0.85;;;14.60;99.90;;;;;;5030146;28;20037;-62
2023/03/13 10:31:32;;;;;;;0.65;0.65;;;14.70;99.90;;;;;;5030271;28;20057;-62
2023/03/13 10:34:12;;;;;;;6.55;1.50;;;14.70;99.90;;;;;;5024635;28;20125;-62
2023/03/13 10:37:05;;;;;;;0.10;0.10;;;14.70;99.90;;;;;;5029026;28;20592;-62
2023/03/13 10:39:31;;;;;;;0.40;0.40;;;14.70;99.90;;;;;;5028148;28;20054;-62
2023/03/13 10:42:08;;;;;;;0.10;0.10;;;14.80;99.90;;;;;;5021496;28;20481;-63
2023/03/13 10:44:34;;;;;;;16.15;3.60;;;14.80;99.90;;;;;;5029407;28;20037;-62
2023/03/13 10:47:02;;;;;;;8.73;1.75;;;14.80;99.90;;;;;;5021703;28;20058;-62
2023/03/13 10:49:28;;;;;;;0.10;0.10;;;14.80;99.90;;;;;;5028647;28;20096;-63
2023/03/13 10:51:56;;;;;;;0.10;0.10;;;14.90;99.90;;;;;;5020724;28;20046;-63
2023/03/13 10:54:23;;;;;;;5.05;2.67;;;15.00;99.90;;;;;;5029141;28;20046;-62
2023/03/13 10:57:15;;;;;;;2.50;1.75;;;15.00;99.90;;;;;;5023311;28;20081;-62
2023/03/13 10:59:51;;;;;;;0.10;0.10;;;15.10;99.90;;;;;;5021306;28;20057;-61
2023/03/13 11:02:20;;;;;;;0.10;0.10;;;15.00;99.90;;;;;;5023690;28;20485;-62
2023/03/13 11:04:50;;;;;;;0.10;0.10;;;14.80;99.90;;;;;;5028768;28;20048;-61
2023/03/13 11:07:28;;;;;;;3.72;2.85;;;14.60;99.90;;;;;;5028006;28;20131;-60
2023/03/13 11:10:23;;;;;;;2.63;1.65;;;14.50;99.90;;;;;;5028778;28;20045;-61
2023/03/13 11:12:54;;;;;;;0.90;0.85;;;14.60;99.90;;;;;;5022765;28;20045;-61
2023/03/13 11:15:25;;;;;;;0.20;0.20;;;14.70;99.90;;;;;;5016460;28;20045;-61
2023/03/13 11:18:04;;;;;;;0.10;0.10;;;15.10;99.90;;;;;;5019660;28;20427;-62
2023/03/13 11:20:34;;;;;;;0.45;0.45;;;15.30;99.90;;;;;;5016548;28;20135;-62
2023/03/13 11:23:06;;;;;;;0.10;0.10;;;15.30;99.90;;;;;;5029406;28;20121;-62
2023/03/13 11:25:44;;;;;;;0.20;0.20;;;15.30;99.90;;;;;;5027053;28;20045;-62
2023/03/13 11:28:34;;;;;;;0.38;0.38;;;15.20;99.90;;;;;;5029266;28;20103;-62
2023/03/13 11:31:24;;;;;;;0.22;0.22;;;15.40;99.90;;;;;;5026500;28;20607;-62
2023/03/13 11:34:08;;;;;;;1.55;0.70;;;15.40;99.90;;;;;;5030324;28;20057;-62
2023/03/13 11:36:43;;;;;;;0.00;0.00;;;15.50;99.90;;;;;;5023044;28;20077;-62
2023/03/13 11:39:33;;;;;;;0.30;0.30;;;15.50;99.90;;;;;;5028462;28;20057;-62
2023/03/13 11:42:11;;;;;;;0.00;0.00;;;15.40;99.90;;;;;;5026401;28;20045;-62
2023/03/13 11:44:58;;;;;;;0.63;0.63;;;15.30;99.90;;;;;;5027470;28;20037;-62
2023/03/13 11:47:32;;;;;;;0.63;0.63;;;15.40;99.90;;;;;;5023103;28;20144;-62
2023/03/13 11:50:34;;;;;;;0.22;0.22;;;15.40;99.90;;;;;;5028004;28;20057;-62
2023/03/13 11:53:31;;;;;;;2.30;2.13;;;15.30;99.90;;;;;;5027091;28;20231;-62
2023/03/13 11:56:23;;;;;;;0.30;0.30;;;15.60;99.90;;;;;;5027114;28;20076;-61
2023/03/13 11:58:54;;;;;;;0.17;0.17;;;15.70;99.90;;;;;;5018264;28;20041;-61
2023/03/13 12:01:27;;;;;;;29.15;0.95;;;15.30;99.90;;;;;;5029166;28;20440;-61
2023/03/13 12:04:07;;;;;;;0.05;0.05;;;15.00;99.90;;;;;;5021438;28;20041;-61
2023/03/13 12:06:45;;;;;;;0.60;0.60;;;14.70;99.90;;;;;;5026135;28;20589;-61
2023/03/13 12:09:14;;;;;;;3.20;2.28;;;14.60;99.90;;;;;;5028303;28;20037;-62
2023/03/13 12:11:49;;;;;;;2.67;2.10;;;14.50;99.90;;;;;;5029163;28;20045;-61
2023/03/13 12:14:22;;;;;;;8.27;1.52;;;14.30;99.90;;;;;;5027203;28;20045;-61
2023/03/13 12:16:58;;;;;;;0.50;0.50;;;14.20;99.90;;;;;;5028972;28;20144;-61
2023/03/13 12:19:41;;;;;;;0.45;0.45;;;14.10;99.90;;;;;;5023299;28;20128;-62
2023/03/13 12:22:17;;;;;;;0.40;0.40;;;14.00;99.90;;;;;;5022576;28;20047;-61
2023/03/13 12:25:11;;;;;;;0.10;0.10;;;14.10;99.90;;;;;;5025738;28;20043;-61
2023/03/13 12:27:42;;;;;;;0.10;0.10;;;14.50;99.90;;;;;;5027412;28;20049;-62
2023/03/13 12:30:32;;;;;;;0.10;0.10;;;14.70;99.90;;;;;;5024160;28;20119;-62
2023/03/13 12:33:25;;;;;;;0.40;0.40;;;15.00;99.90;;;;;;5025981;28;20053;-61
2023/03/13 12:36:04;;;;;;;2.08;1.45;;;15.00;99.90;;;;;;5021723;28;20480;-61
2023/03/13 12:38:45;;;;;;;0.10;0.10;;;15.20;99.90;;;;;;5027586;28;20049;-61
2023/03/13 12:41:30;;;;;;;8.40;4.65;;;15.20;99.90;;;;;;5027270;28;20507;-61
2023/03/13 12:43:56;;;;;;;5.15;1.50;;;15.40;99.90;;;;;;5026362;28;20519;-61
2023/03/13 12:46:37;;;;;;;1.70;1.60;;;15.30;99.90;;;;;;5023417;28;20414;-61
2023/03/13 12:49:30;;;;;;;0.10;0.10;;;15.30;99.90;;;;;;5025096;28;20053;-61
2023/03/13 12:52:21;;;;;;;11.23;2.33;;;15.50;99.90;;;;;;5020867;28;20065;-61
2023/03/13 12:54:55;;;;;;;0.10;0.10;;;15.50;99.90;;;;;;5024903;28;20785;-61
2023/03/13 12:57:58;;;;;;;0.93;0.85;;;15.60;99.90;;;;;;5027839;28;20041;-61
2023/03/13 13:00:27;;;;;;;2.13;1.92;;;15.50;99.90;;;;;;5028002;28;20053;-61
2023/03/13 13:03:14;;;;;;;0.40;0.40;;;15.60;99.90;;;;;;5026871;28;20069;-61
2023/03/13 13:05:58;;;;;;;4.55;1.55;;;15.60;99.90;;;;;;5019036;28;20708;-61
2023/03/13 13:08:25;;;;;;;0.10;0.10;;;15.60;99.90;;;;;;5023682;28;20649;-61
2023/03/13 13:10:51;;;;;;;1.48;1.00;;;15.60;99.90;;;;;;5027770;28;20076;-61
2023/03/13 13:13:28;;;;;;;0.65;0.65;;;15.80;99.90;;;;;;5025947;28;20045;-61
2023/03/13 13:16:21;;;;;;;1.17;1.10;;;15.70;99.90;;;;;;5025626;28;20124;-62
2023/03/13 13:18:46;;;;;;;0.28;0.28;;;15.90;99.90;;;;;;5025862;28;20145;-61
2023/03/13 13:21:15;;;;;;;2.58;0.93;;;15.90;99.90;;;;;;5027797;28;20140;-61
2023/03/13 13:23:45;;;;;;;0.88;0.52;;;16.00;99.90;;;;;;5025545;28;20583;-61
2023/03/13 13:26:25;;;;;;;0.10;0.10;;;15.80;99.90;;;;;;5015566;28;20053;-61